sensor_id;sensor_type;location;lat;lon;timestamp;temperature;humidity
69715;HTU21D;56981;53.532;49.398;2022-08-19T00:01:19;17.54;47.59
69715;HTU21D;56981;53.532;49.398;2022-08-19T00:03:45;17.49;47.60
69715;HTU21D;56981;53.532;49.398;2022-08-19T00:06:11;17.47;47.78
69715;HTU21D;56981;53.532;49.398;2022-08-19T00:08:37;17.50;47.24
69715;HTU21D;56981;53.532;49.398;2022-08-19T00:11:03;17.45;47.25
69715;HTU21D;56981;53.532;49.398;2022-08-19T00:13:30;17.43;47.55
69715;HTU21D;56981;53.532;49.398;2022-08-19T00:15:56;17.37;47.50
69715;HTU21D;56981;53.532;49.398;2022-08-19T00:18:24;17.35;47.54
69715;HTU21D;56981;53.532;49.398;2022-08-19T00:20:50;17.36;47.41
69715;HTU21D;56981;53.532;49.398;2022-08-19T00:23:16;17.33;47.75
69715;HTU21D;56981;53.532;49.398;2022-08-19T00:25:42;17.30;47.54
69715;HTU21D;56981;53.532;49.398;2022-08-19T00:28:08;17.22;47.64
69715;HTU21D;56981;53.532;49.398;2022-08-19T00:30:34;17.20;47.57
69715;HTU21D;56981;53.532;49.398;2022-08-19T00:33:00;17.17;47.89
69715;HTU21D;56981;53.532;49.398;2022-08-19T00:35:26;17.10;47.67
69715;HTU21D;56981;53.532;49.398;2022-08-19T00:37:53;17.07;47.66
69715;HTU21D;56981;53.532;49.398;2022-08-19T00:40:20;17.05;48.02
69715;HTU21D;56981;53.532;49.398;2022-08-19T00:42:46;17.02;47.76
69715;HTU21D;56981;53.532;49.398;2022-08-19T00:45:23;17.01;47.87
69715;HTU21D;56981;53.532;49.398;2022-08-19T00:47:49;17.01;48.22
69715;HTU21D;56981;53.532;49.398;2022-08-19T00:50:18;16.95;48.24
69715;HTU21D;56981;53.532;49.398;2022-08-19T00:52:47;16.89;48.16
69715;HTU21D;56981;53.532;49.398;2022-08-19T00:55:23;16.88;48.34
69715;HTU21D;56981;53.532;49.398;2022-08-19T00:57:59;16.88;47.92
69715;HTU21D;56981;53.532;49.398;2022-08-19T01:00:28;16.84;48.63
69715;HTU21D;56981;53.532;49.398;2022-08-19T01:02:54;16.79;48.78
69715;HTU21D;56981;53.532;49.398;2022-08-19T01:05:24;16.82;48.96
69715;HTU21D;56981;53.532;49.398;2022-08-19T01:07:53;16.77;48.65
69715;HTU21D;56981;53.532;49.398;2022-08-19T01:10:24;16.75;48.82
69715;HTU21D;56981;53.532;49.398;2022-08-19T01:12:51;16.76;48.76
69715;HTU21D;56981;53.532;49.398;2022-08-19T01:15:23;16.76;48.86
69715;HTU21D;56981;53.532;49.398;2022-08-19T01:17:51;16.73;49.01
69715;HTU21D;56981;53.532;49.398;2022-08-19T01:20:21;16.70;48.96
69715;HTU21D;56981;53.532;49.398;2022-08-19T01:22:57;16.71;48.80
69715;HTU21D;56981;53.532;49.398;2022-08-19T01:25:31;16.70;48.57
69715;HTU21D;56981;53.532;49.398;2022-08-19T01:27:57;16.65;48.93
69715;HTU21D;56981;53.532;49.398;2022-08-19T01:30:32;16.67;48.90
69715;HTU21D;56981;53.532;49.398;2022-08-19T01:32:59;16.70;48.60
69715;HTU21D;56981;53.532;49.398;2022-08-19T01:35:28;16.69;48.37
69715;HTU21D;56981;53.532;49.398;2022-08-19T01:37:59;16.66;48.73
69715;HTU21D;56981;53.532;49.398;2022-08-19T01:40:28;16.75;48.50
69715;HTU21D;56981;53.532;49.398;2022-08-19T01:42:55;16.76;48.19
69715;HTU21D;56981;53.532;49.398;2022-08-19T01:45:23;17.08;47.52
69715;HTU21D;56981;53.532;49.398;2022-08-19T01:47:49;17.45;46.41
69715;HTU21D;56981;53.532;49.398;2022-08-19T01:50:16;17.89;45.03
69715;HTU21D;56981;53.532;49.398;2022-08-19T01:52:44;18.50;43.24
69715;HTU21D;56981;53.532;49.398;2022-08-19T01:55:14;18.99;41.75
69715;HTU21D;56981;53.532;49.398;2022-08-19T01:57:44;19.46;40.98
69715;HTU21D;56981;53.532;49.398;2022-08-19T02:00:15;19.97;39.49
69715;HTU21D;56981;53.532;49.398;2022-08-19T02:02:42;20.46;38.33
69715;HTU21D;56981;53.532;49.398;2022-08-19T02:05:09;20.89;37.14
69715;HTU21D;56981;53.532;49.398;2022-08-19T02:07:35;21.35;35.98
69715;HTU21D;56981;53.532;49.398;2022-08-19T02:10:07;21.79;35.31
69715;HTU21D;56981;53.532;49.398;2022-08-19T02:12:33;22.25;33.98
69715;HTU21D;56981;53.532;49.398;2022-08-19T02:14:59;22.31;33.76
69715;HTU21D;56981;53.532;49.398;2022-08-19T02:17:27;22.53;33.51
69715;HTU21D;56981;53.532;49.398;2022-08-19T02:19:55;22.83;32.70
69715;HTU21D;56981;53.532;49.398;2022-08-19T02:22:23;23.35;31.57
69715;HTU21D;56981;53.532;49.398;2022-08-19T02:24:52;23.37;31.83
69715;HTU21D;56981;53.532;49.398;2022-08-19T02:27:18;23.64;31.87
69715;HTU21D;56981;53.532;49.398;2022-08-19T02:29:46;23.76;30.20
69715;HTU21D;56981;53.532;49.398;2022-08-19T02:32:12;23.86;30.01
69715;HTU21D;56981;53.532;49.398;2022-08-19T02:34:39;23.97;29.51
69715;HTU21D;56981;53.532;49.398;2022-08-19T02:37:05;24.10;29.35
69715;HTU21D;56981;53.532;49.398;2022-08-19T02:39:51;24.21;28.65
69715;HTU21D;56981;53.532;49.398;2022-08-19T02:42:17;24.34;28.58
69715;HTU21D;56981;53.532;49.398;2022-08-19T02:44:43;24.87;27.73
69715;HTU21D;56981;53.532;49.398;2022-08-19T02:47:10;24.69;27.92
69715;HTU21D;56981;53.532;49.398;2022-08-19T02:49:36;24.54;27.96
69715;HTU21D;56981;53.532;49.398;2022-08-19T02:52:02;24.50;28.55
69715;HTU21D;56981;53.532;49.398;2022-08-19T02:54:28;24.61;28.34
69715;HTU21D;56981;53.532;49.398;2022-08-19T02:56:54;25.25;27.43
69715;HTU21D;56981;53.532;49.398;2022-08-19T02:59:20;25.25;27.17
69715;HTU21D;56981;53.532;49.398;2022-08-19T03:01:47;25.32;27.26
69715;HTU21D;56981;53.532;49.398;2022-08-19T03:04:14;25.56;27.16
69715;HTU21D;56981;53.532;49.398;2022-08-19T03:06:44;25.49;26.84
69715;HTU21D;56981;53.532;49.398;2022-08-19T03:09:12;25.40;27.35
69715;HTU21D;56981;53.532;49.398;2022-08-19T03:11:39;25.97;26.62
69715;HTU21D;56981;53.532;49.398;2022-08-19T03:14:06;26.35;25.91
69715;HTU21D;56981;53.532;49.398;2022-08-19T03:16:35;26.49;26.07
69715;HTU21D;56981;53.532;49.398;2022-08-19T03:19:05;27.08;24.87
69715;HTU21D;56981;53.532;49.398;2022-08-19T03:21:32;27.09;24.65
69715;HTU21D;56981;53.532;49.398;2022-08-19T03:24:03;27.37;24.62
69715;HTU21D;56981;53.532;49.398;2022-08-19T03:26:30;27.07;25.27
69715;HTU21D;56981;53.532;49.398;2022-08-19T03:28:56;27.05;24.81
69715;HTU21D;56981;53.532;49.398;2022-08-19T03:31:24;27.06;25.09
69715;HTU21D;56981;53.532;49.398;2022-08-19T03:33:51;27.13;25.35
69715;HTU21D;56981;53.532;49.398;2022-08-19T03:36:20;27.56;24.49
69715;HTU21D;56981;53.532;49.398;2022-08-19T03:38:50;27.25;25.42
69715;HTU21D;56981;53.532;49.398;2022-08-19T03:41:19;27.75;24.58
69715;HTU21D;56981;53.532;49.398;2022-08-19T03:43:47;27.60;25.03
69715;HTU21D;56981;53.532;49.398;2022-08-19T03:46:17;27.78;24.66
69715;HTU21D;56981;53.532;49.398;2022-08-19T03:48:47;28.10;24.16
69715;HTU21D;56981;53.532;49.398;2022-08-19T03:53:52;28.32;24.18
69715;HTU21D;56981;53.532;49.398;2022-08-19T03:56:19;28.53;24.62
69715;HTU21D;56981;53.532;49.398;2022-08-19T03:58:46;28.88;23.53
69715;HTU21D;56981;53.532;49.398;2022-08-19T04:01:15;29.12;23.29
69715;HTU21D;56981;53.532;49.398;2022-08-19T04:03:45;29.38;23.12
69715;HTU21D;56981;53.532;49.398;2022-08-19T04:06:20;29.42;22.87
69715;HTU21D;56981;53.532;49.398;2022-08-19T04:08:49;29.08;23.41
69715;HTU21D;56981;53.532;49.398;2022-08-19T04:11:19;28.80;24.34
69715;HTU21D;56981;53.532;49.398;2022-08-19T04:13:47;29.17;23.55
69715;HTU21D;56981;53.532;49.398;2022-08-19T04:16:14;29.08;24.24
69715;HTU21D;56981;53.532;49.398;2022-08-19T04:18:40;28.62;24.87
69715;HTU21D;56981;53.532;49.398;2022-08-19T04:21:07;28.84;24.78
69715;HTU21D;56981;53.532;49.398;2022-08-19T04:23:35;29.15;24.11
69715;HTU21D;56981;53.532;49.398;2022-08-19T04:26:02;29.33;24.04
69715;HTU21D;56981;53.532;49.398;2022-08-19T04:28:28;29.09;24.69
69715;HTU21D;56981;53.532;49.398;2022-08-19T04:30:55;28.75;24.91
69715;HTU21D;56981;53.532;49.398;2022-08-19T04:33:23;28.48;25.19
69715;HTU21D;56981;53.532;49.398;2022-08-19T04:35:51;28.48;25.43
69715;HTU21D;56981;53.532;49.398;2022-08-19T04:38:19;28.50;25.70
69715;HTU21D;56981;53.532;49.398;2022-08-19T04:40:50;28.24;26.02
69715;HTU21D;56981;53.532;49.398;2022-08-19T04:43:37;27.90;26.87
69715;HTU21D;56981;53.532;49.398;2022-08-19T04:46:11;28.21;26.51
69715;HTU21D;56981;53.532;49.398;2022-08-19T04:48:38;28.67;25.39
69715;HTU21D;56981;53.532;49.398;2022-08-19T04:51:09;28.70;25.94
69715;HTU21D;56981;53.532;49.398;2022-08-19T04:53:37;28.83;25.43
69715;HTU21D;56981;53.532;49.398;2022-08-19T04:56:13;28.87;25.30
69715;HTU21D;56981;53.532;49.398;2022-08-19T04:58:41;28.99;25.17
69715;HTU21D;56981;53.532;49.398;2022-08-19T05:01:19;28.79;25.26
69715;HTU21D;56981;53.532;49.398;2022-08-19T05:03:45;29.16;25.26
69715;HTU21D;56981;53.532;49.398;2022-08-19T05:06:14;29.31;24.83
69715;HTU21D;56981;53.532;49.398;2022-08-19T05:08:41;29.00;24.99
69715;HTU21D;56981;53.532;49.398;2022-08-19T05:11:16;29.02;25.15
69715;HTU21D;56981;53.532;49.398;2022-08-19T05:13:44;29.33;24.78
69715;HTU21D;56981;53.532;49.398;2022-08-19T05:16:11;29.49;24.51
69715;HTU21D;56981;53.532;49.398;2022-08-19T05:18:39;29.29;24.88
69715;HTU21D;56981;53.532;49.398;2022-08-19T05:21:24;29.15;25.25
69715;HTU21D;56981;53.532;49.398;2022-08-19T05:24:09;29.02;25.34
69715;HTU21D;56981;53.532;49.398;2022-08-19T05:26:37;29.17;25.35
69715;HTU21D;56981;53.532;49.398;2022-08-19T05:29:04;29.66;24.78
69715;HTU21D;56981;53.532;49.398;2022-08-19T05:31:31;29.77;24.06
69715;HTU21D;56981;53.532;49.398;2022-08-19T05:33:57;29.77;24.24
69715;HTU21D;56981;53.532;49.398;2022-08-19T05:36:28;30.19;23.78
69715;HTU21D;56981;53.532;49.398;2022-08-19T05:38:55;30.33;23.70
69715;HTU21D;56981;53.532;49.398;2022-08-19T05:41:22;29.79;24.06
69715;HTU21D;56981;53.532;49.398;2022-08-19T05:43:56;29.89;24.60
69715;HTU21D;56981;53.532;49.398;2022-08-19T05:46:22;30.04;23.83
69715;HTU21D;56981;53.532;49.398;2022-08-19T05:48:48;30.04;23.66
69715;HTU21D;56981;53.532;49.398;2022-08-19T05:51:15;29.85;24.25
69715;HTU21D;56981;53.532;49.398;2022-08-19T05:53:42;29.83;24.66
69715;HTU21D;56981;53.532;49.398;2022-08-19T05:56:13;30.05;24.02
69715;HTU21D;56981;53.532;49.398;2022-08-19T05:58:42;30.42;23.73
69715;HTU21D;56981;53.532;49.398;2022-08-19T06:01:12;30.54;23.99
69715;HTU21D;56981;53.532;49.398;2022-08-19T06:03:40;30.96;23.11
69715;HTU21D;56981;53.532;49.398;2022-08-19T06:06:07;31.09;22.65
69715;HTU21D;56981;53.532;49.398;2022-08-19T06:08:35;30.89;23.10
69715;HTU21D;56981;53.532;49.398;2022-08-19T06:11:20;30.86;22.54
69715;HTU21D;56981;53.532;49.398;2022-08-19T06:13:49;31.04;22.82
69715;HTU21D;56981;53.532;49.398;2022-08-19T06:16:18;30.67;23.45
69715;HTU21D;56981;53.532;49.398;2022-08-19T06:18:55;30.77;23.79
69715;HTU21D;56981;53.532;49.398;2022-08-19T06:21:25;30.82;23.30
69715;HTU21D;56981;53.532;49.398;2022-08-19T06:23:53;30.80;23.07
69715;HTU21D;56981;53.532;49.398;2022-08-19T06:26:20;30.45;24.01
69715;HTU21D;56981;53.532;49.398;2022-08-19T06:28:47;30.21;24.14
69715;HTU21D;56981;53.532;49.398;2022-08-19T06:31:33;30.59;24.03
69715;HTU21D;56981;53.532;49.398;2022-08-19T06:34:03;30.89;23.86
69715;HTU21D;56981;53.532;49.398;2022-08-19T06:36:32;30.82;23.11
69715;HTU21D;56981;53.532;49.398;2022-08-19T06:39:01;30.59;23.31
69715;HTU21D;56981;53.532;49.398;2022-08-19T06:41:29;30.42;23.64
69715;HTU21D;56981;53.532;49.398;2022-08-19T06:43:57;30.47;23.85
69715;HTU21D;56981;53.532;49.398;2022-08-19T06:46:23;30.66;23.59
69715;HTU21D;56981;53.532;49.398;2022-08-19T06:48:50;30.94;23.37
69715;HTU21D;56981;53.532;49.398;2022-08-19T06:51:19;31.14;23.24
69715;HTU21D;56981;53.532;49.398;2022-08-19T06:53:47;30.87;23.05
69715;HTU21D;56981;53.532;49.398;2022-08-19T06:56:19;30.57;23.30
69715;HTU21D;56981;53.532;49.398;2022-08-19T06:58:49;30.76;23.99
69715;HTU21D;56981;53.532;49.398;2022-08-19T07:01:19;31.02;23.17
69715;HTU21D;56981;53.532;49.398;2022-08-19T07:03:45;31.15;23.29
69715;HTU21D;56981;53.532;49.398;2022-08-19T07:06:14;30.65;23.50
69715;HTU21D;56981;53.532;49.398;2022-08-19T07:08:44;30.17;24.24
69715;HTU21D;56981;53.532;49.398;2022-08-19T07:11:14;30.51;24.24
69715;HTU21D;56981;53.532;49.398;2022-08-19T07:13:44;30.32;23.78
69715;HTU21D;56981;53.532;49.398;2022-08-19T07:16:17;30.55;23.90
69715;HTU21D;56981;53.532;49.398;2022-08-19T07:18:48;30.65;24.08
69715;HTU21D;56981;53.532;49.398;2022-08-19T07:21:24;30.49;23.58
69715;HTU21D;56981;53.532;49.398;2022-08-19T07:23:56;30.12;24.22
69715;HTU21D;56981;53.532;49.398;2022-08-19T07:26:26;29.87;25.14
69715;HTU21D;56981;53.532;49.398;2022-08-19T07:28:56;29.49;25.59
69715;HTU21D;56981;53.532;49.398;2022-08-19T07:31:25;29.39;25.16
69715;HTU21D;56981;53.532;49.398;2022-08-19T07:33:53;29.42;26.01
69715;HTU21D;56981;53.532;49.398;2022-08-19T07:36:27;29.86;25.88
69715;HTU21D;56981;53.532;49.398;2022-08-19T07:39:04;29.88;25.14
69715;HTU21D;56981;53.532;49.398;2022-08-19T07:41:34;29.73;25.01
69715;HTU21D;56981;53.532;49.398;2022-08-19T07:44:04;29.78;25.05
69715;HTU21D;56981;53.532;49.398;2022-08-19T07:46:31;30.01;24.76
69715;HTU21D;56981;53.532;49.398;2022-08-19T07:48:58;29.88;24.29
69715;HTU21D;56981;53.532;49.398;2022-08-19T07:51:24;29.74;24.31
69715;HTU21D;56981;53.532;49.398;2022-08-19T07:53:53;29.68;24.93
69715;HTU21D;56981;53.532;49.398;2022-08-19T07:56:23;29.96;23.81
69715;HTU21D;56981;53.532;49.398;2022-08-19T07:58:51;29.58;24.93
69715;HTU21D;56981;53.532;49.398;2022-08-19T08:01:20;29.26;25.08
69715;HTU21D;56981;53.532;49.398;2022-08-19T08:03:48;29.37;25.43
69715;HTU21D;56981;53.532;49.398;2022-08-19T08:06:33;29.14;25.49
69715;HTU21D;56981;53.532;49.398;2022-08-19T08:09:23;28.95;26.02
69715;HTU21D;56981;53.532;49.398;2022-08-19T08:11:52;28.89;25.95
69715;HTU21D;56981;53.532;49.398;2022-08-19T08:14:22;28.52;25.59
69715;HTU21D;56981;53.532;49.398;2022-08-19T08:16:49;28.56;26.59
69715;HTU21D;56981;53.532;49.398;2022-08-19T08:19:21;28.46;25.79
69715;HTU21D;56981;53.532;49.398;2022-08-19T08:21:48;28.26;25.80
69715;HTU21D;56981;53.532;49.398;2022-08-19T08:24:15;28.12;26.59
69715;HTU21D;56981;53.532;49.398;2022-08-19T08:26:42;27.96;26.20
69715;HTU21D;56981;53.532;49.398;2022-08-19T08:29:11;27.86;27.04
69715;HTU21D;56981;53.532;49.398;2022-08-19T08:31:40;27.88;26.81
69715;HTU21D;56981;53.532;49.398;2022-08-19T08:34:07;27.75;27.07
69715;HTU21D;56981;53.532;49.398;2022-08-19T08:36:38;27.59;26.81
69715;HTU21D;56981;53.532;49.398;2022-08-19T08:39:09;27.54;26.31
69715;HTU21D;56981;53.532;49.398;2022-08-19T08:41:50;27.80;26.82
69715;HTU21D;56981;53.532;49.398;2022-08-19T08:47:04;27.96;26.25
69715;HTU21D;56981;53.532;49.398;2022-08-19T08:49:50;27.94;25.52
69715;HTU21D;56981;53.532;49.398;2022-08-19T08:52:22;27.59;26.82
69715;HTU21D;56981;53.532;49.398;2022-08-19T08:54:54;27.32;27.26
69715;HTU21D;56981;53.532;49.398;2022-08-19T09:00:17;26.92;26.57
69715;HTU21D;56981;53.532;49.398;2022-08-19T09:02:44;26.66;27.57
69715;HTU21D;56981;53.532;49.398;2022-08-19T09:05:11;26.56;27.91
69715;HTU21D;56981;53.532;49.398;2022-08-19T09:10:10;26.50;28.01
69715;HTU21D;56981;53.532;49.398;2022-08-19T09:12:53;26.34;28.29
69715;HTU21D;56981;53.532;49.398;2022-08-19T09:15:29;26.34;28.36
69715;HTU21D;56981;53.532;49.398;2022-08-19T09:18:00;26.18;29.00
69715;HTU21D;56981;53.532;49.398;2022-08-19T09:20:27;26.13;28.70
69715;HTU21D;56981;53.532;49.398;2022-08-19T09:22:53;26.02;28.52
69715;HTU21D;56981;53.532;49.398;2022-08-19T09:25:22;25.95;29.56
69715;HTU21D;56981;53.532;49.398;2022-08-19T09:27:49;26.18;29.11
69715;HTU21D;56981;53.532;49.398;2022-08-19T09:30:22;26.11;28.16
69715;HTU21D;56981;53.532;49.398;2022-08-19T09:32:49;25.95;28.67
69715;HTU21D;56981;53.532;49.398;2022-08-19T09:35:19;25.72;29.05
69715;HTU21D;56981;53.532;49.398;2022-08-19T09:37:45;25.63;29.48
69715;HTU21D;56981;53.532;49.398;2022-08-19T09:40:11;25.76;29.13
69715;HTU21D;56981;53.532;49.398;2022-08-19T09:42:38;25.76;28.81
69715;HTU21D;56981;53.532;49.398;2022-08-19T09:45:04;25.65;28.81
69715;HTU21D;56981;53.532;49.398;2022-08-19T09:47:30;25.67;29.10
69715;HTU21D;56981;53.532;49.398;2022-08-19T09:49:58;25.62;28.23
69715;HTU21D;56981;53.532;49.398;2022-08-19T09:52:24;25.63;29.03
69715;HTU21D;56981;53.532;49.398;2022-08-19T09:54:52;25.66;28.86
69715;HTU21D;56981;53.532;49.398;2022-08-19T09:57:18;25.62;28.67
69715;HTU21D;56981;53.532;49.398;2022-08-19T09:59:44;25.62;29.32
69715;HTU21D;56981;53.532;49.398;2022-08-19T10:02:11;25.61;29.26
69715;HTU21D;56981;53.532;49.398;2022-08-19T10:04:37;25.61;28.24
69715;HTU21D;56981;53.532;49.398;2022-08-19T10:07:21;25.63;28.29
69715;HTU21D;56981;53.532;49.398;2022-08-19T10:09:53;25.54;28.71
69715;HTU21D;56981;53.532;49.398;2022-08-19T10:12:20;25.66;28.91
69715;HTU21D;56981;53.532;49.398;2022-08-19T10:14:49;25.77;27.81
69715;HTU21D;56981;53.532;49.398;2022-08-19T10:17:16;25.87;27.45
69715;HTU21D;56981;53.532;49.398;2022-08-19T10:19:43;25.92;27.65
69715;HTU21D;56981;53.532;49.398;2022-08-19T10:22:12;25.94;27.90
69715;HTU21D;56981;53.532;49.398;2022-08-19T10:24:39;25.90;27.81
69715;HTU21D;56981;53.532;49.398;2022-08-19T10:27:05;25.84;27.68
69715;HTU21D;56981;53.532;49.398;2022-08-19T10:29:35;25.87;26.39
69715;HTU21D;56981;53.532;49.398;2022-08-19T10:32:03;25.81;25.49
69715;HTU21D;56981;53.532;49.398;2022-08-19T10:34:31;25.68;25.07
69715;HTU21D;56981;53.532;49.398;2022-08-19T10:36:58;25.68;25.68
69715;HTU21D;56981;53.532;49.398;2022-08-19T10:39:24;25.71;25.91
69715;HTU21D;56981;53.532;49.398;2022-08-19T10:41:50;25.68;26.34
69715;HTU21D;56981;53.532;49.398;2022-08-19T10:44:16;25.73;25.17
69715;HTU21D;56981;53.532;49.398;2022-08-19T10:46:43;25.64;25.51
69715;HTU21D;56981;53.532;49.398;2022-08-19T10:49:11;25.54;25.30
69715;HTU21D;56981;53.532;49.398;2022-08-19T10:51:38;25.57;26.14
69715;HTU21D;56981;53.532;49.398;2022-08-19T10:54:29;25.61;26.32
69715;HTU21D;56981;53.532;49.398;2022-08-19T10:57:14;25.73;26.03
69715;HTU21D;56981;53.532;49.398;2022-08-19T10:59:41;25.57;25.52
69715;HTU21D;56981;53.532;49.398;2022-08-19T11:02:16;25.47;26.39
69715;HTU21D;56981;53.532;49.398;2022-08-19T11:04:42;25.56;26.00
69715;HTU21D;56981;53.532;49.398;2022-08-19T11:07:08;25.57;25.69
69715;HTU21D;56981;53.532;49.398;2022-08-19T11:09:41;25.64;25.78
69715;HTU21D;56981;53.532;49.398;2022-08-19T11:12:08;25.60;25.96
69715;HTU21D;56981;53.532;49.398;2022-08-19T11:14:35;25.57;26.23
69715;HTU21D;56981;53.532;49.398;2022-08-19T11:17:03;25.59;26.05
69715;HTU21D;56981;53.532;49.398;2022-08-19T11:19:30;25.53;26.36
69715;HTU21D;56981;53.532;49.398;2022-08-19T11:21:56;25.56;26.61
69715;HTU21D;56981;53.532;49.398;2022-08-19T11:24:24;25.52;26.39
69715;HTU21D;56981;53.532;49.398;2022-08-19T11:26:53;25.46;26.53
69715;HTU21D;56981;53.532;49.398;2022-08-19T11:29:23;25.45;26.62
69715;HTU21D;56981;53.532;49.398;2022-08-19T11:31:53;25.39;26.79
69715;HTU21D;56981;53.532;49.398;2022-08-19T11:34:22;25.42;26.23
69715;HTU21D;56981;53.532;49.398;2022-08-19T11:36:50;25.39;26.26
69715;HTU21D;56981;53.532;49.398;2022-08-19T11:39:19;25.50;25.43
69715;HTU21D;56981;53.532;49.398;2022-08-19T11:41:46;25.57;24.76
69715;HTU21D;56981;53.532;49.398;2022-08-19T11:44:12;25.48;25.25
69715;HTU21D;56981;53.532;49.398;2022-08-19T11:46:41;25.46;25.39
69715;HTU21D;56981;53.532;49.398;2022-08-19T11:49:11;25.49;26.18
69715;HTU21D;56981;53.532;49.398;2022-08-19T11:51:37;25.51;26.05
69715;HTU21D;56981;53.532;49.398;2022-08-19T11:54:04;25.45;25.11
69715;HTU21D;56981;53.532;49.398;2022-08-19T11:56:31;25.37;25.14
69715;HTU21D;56981;53.532;49.398;2022-08-19T11:58:57;25.34;26.01
69715;HTU21D;56981;53.532;49.398;2022-08-19T12:01:25;25.28;25.74
69715;HTU21D;56981;53.532;49.398;2022-08-19T12:03:53;25.27;25.33
69715;HTU21D;56981;53.532;49.398;2022-08-19T12:06:25;25.24;25.00
69715;HTU21D;56981;53.532;49.398;2022-08-19T12:08:58;25.25;23.36
69715;HTU21D;56981;53.532;49.398;2022-08-19T12:11:24;25.23;23.73
69715;HTU21D;56981;53.532;49.398;2022-08-19T12:13:51;25.22;23.59
69715;HTU21D;56981;53.532;49.398;2022-08-19T12:16:20;25.24;24.44
69715;HTU21D;56981;53.532;49.398;2022-08-19T12:18:47;25.22;24.62
69715;HTU21D;56981;53.532;49.398;2022-08-19T12:21:14;25.29;24.97
69715;HTU21D;56981;53.532;49.398;2022-08-19T12:23:42;25.25;24.54
69715;HTU21D;56981;53.532;49.398;2022-08-19T12:26:11;25.31;25.07
69715;HTU21D;56981;53.532;49.398;2022-08-19T12:28:37;25.28;24.15
69715;HTU21D;56981;53.532;49.398;2022-08-19T12:31:03;25.23;24.30
69715;HTU21D;56981;53.532;49.398;2022-08-19T12:33:30;25.24;24.14
69715;HTU21D;56981;53.532;49.398;2022-08-19T12:36:02;25.27;24.60
69715;HTU21D;56981;53.532;49.398;2022-08-19T12:38:29;25.19;23.98
69715;HTU21D;56981;53.532;49.398;2022-08-19T12:40:55;25.20;24.24
69715;HTU21D;56981;53.532;49.398;2022-08-19T12:43:21;25.16;24.88
69715;HTU21D;56981;53.532;49.398;2022-08-19T12:45:48;25.16;24.61
69715;HTU21D;56981;53.532;49.398;2022-08-19T12:48:15;25.09;24.55
69715;HTU21D;56981;53.532;49.398;2022-08-19T12:50:42;25.12;24.66
69715;HTU21D;56981;53.532;49.398;2022-08-19T12:53:12;25.12;25.13
69715;HTU21D;56981;53.532;49.398;2022-08-19T12:55:45;25.08;25.07
69715;HTU21D;56981;53.532;49.398;2022-08-19T12:58:11;25.04;25.20
69715;HTU21D;56981;53.532;49.398;2022-08-19T13:00:38;25.00;25.46
69715;HTU21D;56981;53.532;49.398;2022-08-19T13:03:04;24.94;26.26
69715;HTU21D;56981;53.532;49.398;2022-08-19T13:05:32;24.95;25.69
69715;HTU21D;56981;53.532;49.398;2022-08-19T13:08:01;24.97;25.63
69715;HTU21D;56981;53.532;49.398;2022-08-19T13:10:35;25.00;25.70
69715;HTU21D;56981;53.532;49.398;2022-08-19T13:13:03;24.97;24.94
69715;HTU21D;56981;53.532;49.398;2022-08-19T13:15:37;24.84;24.92
69715;HTU21D;56981;53.532;49.398;2022-08-19T13:18:09;24.77;25.48
69715;HTU21D;56981;53.532;49.398;2022-08-19T13:20:39;24.76;25.26
69715;HTU21D;56981;53.532;49.398;2022-08-19T13:23:09;24.74;23.58
69715;HTU21D;56981;53.532;49.398;2022-08-19T13:25:36;24.76;23.68
69715;HTU21D;56981;53.532;49.398;2022-08-19T13:28:03;24.75;23.43
69715;HTU21D;56981;53.532;49.398;2022-08-19T13:30:29;24.71;23.32
69715;HTU21D;56981;53.532;49.398;2022-08-19T13:33:21;24.65;23.70
69715;HTU21D;56981;53.532;49.398;2022-08-19T13:35:50;24.63;24.15
69715;HTU21D;56981;53.532;49.398;2022-08-19T13:38:31;24.66;24.56
69715;HTU21D;56981;53.532;49.398;2022-08-19T13:41:05;24.68;23.97
69715;HTU21D;56981;53.532;49.398;2022-08-19T13:43:31;24.66;22.85
69715;HTU21D;56981;53.532;49.398;2022-08-19T13:45:57;24.61;22.99
69715;HTU21D;56981;53.532;49.398;2022-08-19T13:48:27;24.60;23.00
69715;HTU21D;56981;53.532;49.398;2022-08-19T13:50:53;24.55;23.00
69715;HTU21D;56981;53.532;49.398;2022-08-19T13:53:19;24.54;23.51
69715;HTU21D;56981;53.532;49.398;2022-08-19T13:55:45;24.54;23.93
69715;HTU21D;56981;53.532;49.398;2022-08-19T13:58:12;24.55;24.53
69715;HTU21D;56981;53.532;49.398;2022-08-19T14:00:43;24.56;24.25
69715;HTU21D;56981;53.532;49.398;2022-08-19T14:03:12;24.53;24.22
69715;HTU21D;56981;53.532;49.398;2022-08-19T14:05:48;24.48;23.05
69715;HTU21D;56981;53.532;49.398;2022-08-19T14:08:18;24.44;23.88
69715;HTU21D;56981;53.532;49.398;2022-08-19T14:10:45;24.44;23.07
69715;HTU21D;56981;53.532;49.398;2022-08-19T14:13:18;24.36;22.34
69715;HTU21D;56981;53.532;49.398;2022-08-19T14:15:49;24.30;22.12
69715;HTU21D;56981;53.532;49.398;2022-08-19T14:18:17;24.26;22.65
69715;HTU21D;56981;53.532;49.398;2022-08-19T14:20:43;24.24;22.97
69715;HTU21D;56981;53.532;49.398;2022-08-19T14:23:14;24.21;23.16
69715;HTU21D;56981;53.532;49.398;2022-08-19T14:25:42;24.18;22.91
69715;HTU21D;56981;53.532;49.398;2022-08-19T14:28:12;24.14;23.25
69715;HTU21D;56981;53.532;49.398;2022-08-19T14:30:38;24.06;23.34
69715;HTU21D;56981;53.532;49.398;2022-08-19T14:33:05;24.02;23.88
69715;HTU21D;56981;53.532;49.398;2022-08-19T14:35:33;23.98;23.81
69715;HTU21D;56981;53.532;49.398;2022-08-19T14:38:01;23.94;24.22
69715;HTU21D;56981;53.532;49.398;2022-08-19T14:40:28;23.91;24.36
69715;HTU21D;56981;53.532;49.398;2022-08-19T14:43:00;23.86;24.52
69715;HTU21D;56981;53.532;49.398;2022-08-19T14:45:34;23.81;24.54
69715;HTU21D;56981;53.532;49.398;2022-08-19T14:48:01;23.77;24.57
69715;HTU21D;56981;53.532;49.398;2022-08-19T14:50:27;23.75;24.91
69715;HTU21D;56981;53.532;49.398;2022-08-19T14:53:03;23.72;24.75
69715;HTU21D;56981;53.532;49.398;2022-08-19T14:55:31;23.68;24.90
69715;HTU21D;56981;53.532;49.398;2022-08-19T14:57:57;23.62;24.67
69715;HTU21D;56981;53.532;49.398;2022-08-19T15:00:24;23.60;25.39
69715;HTU21D;56981;53.532;49.398;2022-08-19T15:02:50;23.55;24.98
69715;HTU21D;56981;53.532;49.398;2022-08-19T15:05:17;23.52;25.23
69715;HTU21D;56981;53.532;49.398;2022-08-19T15:07:43;23.51;25.61
69715;HTU21D;56981;53.532;49.398;2022-08-19T15:10:11;23.46;25.43
69715;HTU21D;56981;53.532;49.398;2022-08-19T15:12:39;23.41;25.59
69715;HTU21D;56981;53.532;49.398;2022-08-19T15:15:13;23.37;25.85
69715;HTU21D;56981;53.532;49.398;2022-08-19T15:17:41;23.34;25.88
69715;HTU21D;56981;53.532;49.398;2022-08-19T15:20:08;23.29;26.07
69715;HTU21D;56981;53.532;49.398;2022-08-19T15:22:34;23.24;25.89
69715;HTU21D;56981;53.532;49.398;2022-08-19T15:25:02;23.21;26.46